createdAt,value
2022-12-03T00:02:27.493Z,87.61
2022-12-03T00:04:55.794Z,88.23
2022-12-03T00:07:24.150Z,87.84
2022-12-03T00:09:53.630Z,89.18
2022-12-03T00:12:21.968Z,88.65
2022-12-03T00:14:50.005Z,87.77
2022-12-03T00:17:18.237Z,88.00
2022-12-03T00:19:46.409Z,88.07
2022-12-03T00:22:14.462Z,87.46
2022-12-03T00:24:42.433Z,88.11
2022-12-03T00:27:11.785Z,88.11
2022-12-03T00:29:40.001Z,88.26
2022-12-03T00:32:08.180Z,89.01
2022-12-03T00:34:36.562Z,89.30
2022-12-03T00:37:04.614Z,88.27
2022-12-03T00:39:32.768Z,87.37
2022-12-03T00:42:00.872Z,87.49
2022-12-03T00:44:30.370Z,88.16
2022-12-03T00:46:58.389Z,88.08
2022-12-03T00:49:26.588Z,86.98
2022-12-03T00:51:55.077Z,87.29
2022-12-03T00:54:28.344Z,88.13
2022-12-03T00:56:59.754Z,88.25
2022-12-03T00:59:29.442Z,87.21
2022-12-03T01:01:57.770Z,87.02
2022-12-03T01:04:26.070Z,87.55
2022-12-03T01:06:54.192Z,87.09
2022-12-03T01:09:22.154Z,87.25
2022-12-03T01:11:50.557Z,87.18
2022-12-03T01:14:20.412Z,86.53
2022-12-03T01:16:50.118Z,87.25
2022-12-03T01:19:19.555Z,87.09
2022-12-03T01:21:50.553Z,87.19
2022-12-03T01:24:19.488Z,87.52
2022-12-03T01:26:47.871Z,87.13
2022-12-03T01:29:16.133Z,87.47
2022-12-03T01:32:01.789Z,88.19
2022-12-03T01:34:31.043Z,88.31
2022-12-03T01:36:59.226Z,88.80
2022-12-03T01:39:27.195Z,89.18
2022-12-03T01:41:56.381Z,90.06
2022-12-03T01:44:27.018Z,89.49
2022-12-03T01:46:57.504Z,88.50
2022-12-03T01:49:29.628Z,88.11
2022-12-03T01:52:00.262Z,88.00
2022-12-03T01:54:32.617Z,89.25
2022-12-03T01:57:00.573Z,88.84
2022-12-03T01:59:35.522Z,88.49
2022-12-03T02:02:13.771Z,88.27
2022-12-03T02:04:42.179Z,87.83
2022-12-03T02:07:24.605Z,88.98
2022-12-03T02:09:52.961Z,88.88
2022-12-03T02:12:24.413Z,88.80
2022-12-03T02:14:53.827Z,89.68
2022-12-03T02:17:22.328Z,88.50
2022-12-03T02:19:50.908Z,89.37
2022-12-03T02:22:30.824Z,88.92
2022-12-03T02:25:10.481Z,88.45
2022-12-03T02:27:38.981Z,88.84
2022-12-03T02:30:09.211Z,88.81
2022-12-03T02:32:38.088Z,88.56
2022-12-03T02:35:06.655Z,88.58
2022-12-03T02:37:37.095Z,88.32
2022-12-03T02:40:11.182Z,88.80
2022-12-03T02:42:38.449Z,87.64
2022-12-03T02:45:10.704Z,87.05
2022-12-03T02:47:43.189Z,87.66
2022-12-03T02:50:14.292Z,87.52
2022-12-03T02:52:44.187Z,87.85
2022-12-03T02:55:15.188Z,88.05
2022-12-03T02:57:47.504Z,88.27
2022-12-03T03:00:17.187Z,88.03
2022-12-03T03:02:46.635Z,87.93
2022-12-03T03:05:17.433Z,87.89
2022-12-03T03:07:46.215Z,87.90
2022-12-03T03:10:18.271Z,88.13
2022-12-03T03:12:46.555Z,88.13
2022-12-03T03:15:15.183Z,88.05
2022-12-03T03:17:44.263Z,87.94
2022-12-03T03:20:13.159Z,88.47
2022-12-03T03:22:43.958Z,88.43
2022-12-03T03:25:16.544Z,88.50
2022-12-03T03:27:45.775Z,87.82
2022-12-03T03:30:15.615Z,88.54
2022-12-03T03:32:44.316Z,88.16
2022-12-03T03:35:14.822Z,88.15
2022-12-03T03:37:43.392Z,88.01
2022-12-03T03:40:12.186Z,87.89
2022-12-03T03:42:41.413Z,88.10
2022-12-03T03:45:10.945Z,87.70
2022-12-03T03:47:39.015Z,87.77
2022-12-03T03:50:09.333Z,88.11
2022-12-03T03:52:39.050Z,87.79
2022-12-03T03:55:08.276Z,87.90
2022-12-03T03:57:36.747Z,87.90
2022-12-03T04:00:08.367Z,88.35
2022-12-03T04:02:37.581Z,88.55
2022-12-03T04:05:06.800Z,88.83
2022-12-03T04:07:34.790Z,88.76
2022-12-03T04:10:23.962Z,87.97
2022-12-03T04:12:56.853Z,87.89
2022-12-03T04:15:26.662Z,87.81
2022-12-03T04:18:08.936Z,87.77
2022-12-03T04:20:37.322Z,87.67
2022-12-03T04:23:05.325Z,87.73
2022-12-03T04:25:51.128Z,87.96
2022-12-03T04:28:36.273Z,87.30
2022-12-03T04:31:25.914Z,87.23
2022-12-03T04:34:11.802Z,87.47
2022-12-03T04:36:40.004Z,87.07
2022-12-03T04:39:08.188Z,87.23
2022-12-03T04:41:36.465Z,88.22
2022-12-03T04:44:21.849Z,88.98
2022-12-03T04:46:51.758Z,88.96
2022-12-03T04:49:19.828Z,88.96
2022-12-03T04:51:47.869Z,89.89
2022-12-03T04:54:17.196Z,89.42
2022-12-03T04:56:45.472Z,89.03
2022-12-03T04:59:16.522Z,88.98
2022-12-03T05:01:46.087Z,89.08
2022-12-03T05:04:16.395Z,89.75
2022-12-03T05:06:44.471Z,89.65
2022-12-03T05:09:12.819Z,89.22
2022-12-03T05:11:41.010Z,88.73
2022-12-03T05:14:09.847Z,87.85
2022-12-03T05:16:38.372Z,88.13
2022-12-03T05:19:08.730Z,87.81
2022-12-03T05:21:40.565Z,87.51
2022-12-03T05:24:08.960Z,87.77
2022-12-03T05:26:36.949Z,87.57
2022-12-03T05:29:05.202Z,87.85
2022-12-03T05:31:33.310Z,88.18
2022-12-03T05:34:01.464Z,88.51
2022-12-03T05:36:29.684Z,88.14
2022-12-03T05:38:59.533Z,88.03
2022-12-03T05:41:45.168Z,88.33
2022-12-03T05:44:16.211Z,87.92
2022-12-03T05:46:48.530Z,88.19
2022-12-03T05:49:16.742Z,87.73
2022-12-03T05:51:45.139Z,87.54
2022-12-03T05:54:14.479Z,88.71
2022-12-03T05:56:42.766Z,88.40
2022-12-03T05:59:10.830Z,88.39
2022-12-03T06:01:39.110Z,88.05
2022-12-03T06:04:07.349Z,87.79
2022-12-03T06:06:35.824Z,87.85
2022-12-03T06:09:04.056Z,87.68
2022-12-03T06:11:37.021Z,87.77
2022-12-03T06:14:05.612Z,87.59
2022-12-03T06:16:33.799Z,87.02
2022-12-03T06:19:01.855Z,86.89
2022-12-03T06:21:29.964Z,87.62
2022-12-03T06:23:58.293Z,89.21
2022-12-03T06:26:26.728Z,88.13
2022-12-03T06:28:56.281Z,89.29
2022-12-03T06:31:24.391Z,88.50
2022-12-03T06:33:52.548Z,89.33
2022-12-03T06:36:23.212Z,87.76
2022-12-03T06:38:51.578Z,88.69
2022-12-03T06:41:19.824Z,89.68
2022-12-03T06:43:48.126Z,90.42
2022-12-03T06:46:17.531Z,89.29
2022-12-03T06:48:45.767Z,89.35
2022-12-03T06:51:13.876Z,87.99
2022-12-03T06:53:41.949Z,88.34
2022-12-03T06:56:10.110Z,88.22
2022-12-03T06:58:38.052Z,88.54
2022-12-03T07:01:06.223Z,88.41
2022-12-03T07:03:35.535Z,88.22
2022-12-03T07:06:03.823Z,87.95
2022-12-03T07:08:31.718Z,88.03
2022-12-03T07:10:59.688Z,88.99
2022-12-03T07:13:27.681Z,88.74
2022-12-03T07:15:55.878Z,87.20
2022-12-03T07:18:24.106Z,88.61
2022-12-03T07:20:53.907Z,88.38
2022-12-03T07:23:22.133Z,88.31
2022-12-03T07:25:50.334Z,88.24
2022-12-03T07:28:18.680Z,88.37
2022-12-03T07:30:46.815Z,88.90
2022-12-03T07:33:14.794Z,88.15
2022-12-03T07:35:42.805Z,88.37
2022-12-03T07:38:12.134Z,88.51
2022-12-03T07:40:40.324Z,88.04
2022-12-03T07:43:08.502Z,88.85
2022-12-03T07:45:36.783Z,88.66
2022-12-03T07:48:05.209Z,89.23
2022-12-03T07:50:33.423Z,87.95
2022-12-03T07:53:01.518Z,87.86
2022-12-03T07:55:31.213Z,87.31
2022-12-03T07:57:59.263Z,87.18
2022-12-03T08:00:27.881Z,86.91
2022-12-03T08:02:56.166Z,87.70
2022-12-03T08:05:24.382Z,88.92
2022-12-03T08:07:52.721Z,89.64
2022-12-03T08:10:20.771Z,89.33
2022-12-03T08:12:50.177Z,89.65
2022-12-03T08:15:21.153Z,88.97
2022-12-03T08:17:54.812Z,89.38
2022-12-03T08:20:25.035Z,87.63
2022-12-03T08:22:54.541Z,88.59
2022-12-03T08:25:24.825Z,87.48
2022-12-03T08:27:57.801Z,87.20
2022-12-03T08:30:25.695Z,86.31
2022-12-03T08:32:54.712Z,86.03
2022-12-03T08:35:25.367Z,86.93
2022-12-03T08:38:00.444Z,86.70
2022-12-03T08:40:37.084Z,85.93
2022-12-03T08:43:14.295Z,85.62
2022-12-03T08:45:44.263Z,86.09
2022-12-03T08:48:33.788Z,86.42
2022-12-03T08:51:05.980Z,87.61
2022-12-03T08:53:36.920Z,85.87
2022-12-03T08:56:07.873Z,86.57
2022-12-03T08:58:41.472Z,87.41
2022-12-03T09:01:40.210Z,86.38
2022-12-03T09:04:23.253Z,85.56
2022-12-03T09:06:52.303Z,85.43
2022-12-03T09:09:20.739Z,86.49
2022-12-03T09:11:49.015Z,85.12
2022-12-03T09:14:21.220Z,84.80
2022-12-03T09:16:49.998Z,86.77
2022-12-03T09:19:18.269Z,86.07
2022-12-03T09:21:46.553Z,85.78
2022-12-03T09:24:14.936Z,84.73
2022-12-03T09:26:43.185Z,83.89
2022-12-03T09:29:12.677Z,84.32
2022-12-03T09:31:42.546Z,83.04
2022-12-03T09:34:10.736Z,85.21
2022-12-03T09:36:39.264Z,84.74
2022-12-03T09:39:07.839Z,83.73
2022-12-03T09:41:35.866Z,85.14
2022-12-03T09:44:08.566Z,85.28
2022-12-03T09:46:40.659Z,83.61
2022-12-03T09:49:16.087Z,84.40
2022-12-03T09:51:45.371Z,83.15
2022-12-03T09:54:23.470Z,85.07
2022-12-03T09:56:51.783Z,84.94
2022-12-03T09:59:19.977Z,82.95
2022-12-03T10:01:48.280Z,85.09
2022-12-03T10:04:17.902Z,85.91
2022-12-03T10:06:46.456Z,85.57
2022-12-03T10:09:17.549Z,83.20
2022-12-03T10:11:45.881Z,82.19
2022-12-03T10:14:17.705Z,82.00
2022-12-03T10:16:46.148Z,83.35
2022-12-03T10:19:23.757Z,83.29
2022-12-03T10:21:51.857Z,82.86
2022-12-03T10:24:22.950Z,83.47
2022-12-03T10:26:52.737Z,83.06
2022-12-03T10:29:21.963Z,82.94
2022-12-03T10:31:56.701Z,84.24
2022-12-03T10:34:34.396Z,83.44
2022-12-03T10:37:14.287Z,83.13
2022-12-03T10:39:59.847Z,83.11
2022-12-03T10:42:29.958Z,84.69
2022-12-03T10:45:22.085Z,84.51
2022-12-03T10:48:05.509Z,85.59
2022-12-03T10:50:35.864Z,85.48
2022-12-03T10:53:04.396Z,84.99
2022-12-03T10:55:37.239Z,82.93
2022-12-03T10:58:05.138Z,81.08
2022-12-03T11:00:33.476Z,81.46
2022-12-03T11:03:01.433Z,83.54
2022-12-03T11:05:29.569Z,82.96
2022-12-03T11:07:58.948Z,83.26
2022-12-03T11:10:27.028Z,82.87
2022-12-03T11:13:30.073Z,80.97
2022-12-03T11:15:58.798Z,81.61
2022-12-03T11:19:02.268Z,82.17
2022-12-03T11:21:30.648Z,83.77
2022-12-03T11:24:21.876Z,81.66
2022-12-03T11:27:23.215Z,83.33
2022-12-03T11:29:59.736Z,82.39
2022-12-03T11:33:07.488Z,81.64
2022-12-03T11:36:08.216Z,83.05
2022-12-03T11:39:00.421Z,84.00
2022-12-03T11:41:32.584Z,83.02
2022-12-03T11:44:06.745Z,84.52
2022-12-03T11:46:43.378Z,83.65
2022-12-03T11:49:26.266Z,81.93
2022-12-03T11:51:54.440Z,82.73
2022-12-03T11:54:24.487Z,83.89
2022-12-03T11:56:56.225Z,82.51
2022-12-03T11:59:24.172Z,83.75
2022-12-03T12:01:52.081Z,82.60
2022-12-03T12:04:32.522Z,82.12
2022-12-03T12:07:00.957Z,82.17
2022-12-03T12:09:54.659Z,82.87
2022-12-03T12:12:30.521Z,83.65
2022-12-03T12:15:00.806Z,84.05
2022-12-03T12:17:34.028Z,83.48
2022-12-03T12:20:25.765Z,81.82
2022-12-03T12:22:54.676Z,83.99
2022-12-03T12:25:42.166Z,83.94
2022-12-03T12:28:11.501Z,81.94
2022-12-03T12:30:40.435Z,81.76
2022-12-03T12:33:23.093Z,83.42
2022-12-03T12:35:52.041Z,81.62
2022-12-03T12:38:24.572Z,81.22
2022-12-03T12:40:52.583Z,81.17
2022-12-03T12:43:26.924Z,80.46
2022-12-03T12:45:56.536Z,82.26
2022-12-03T12:48:27.422Z,83.22
2022-12-03T12:51:01.379Z,82.47
2022-12-03T12:53:32.828Z,82.37
2022-12-03T12:56:02.384Z,81.34
2022-12-03T12:58:34.498Z,81.59
2022-12-03T13:01:06.892Z,83.10
2022-12-03T13:03:38.614Z,82.91
2022-12-03T13:06:07.486Z,81.88
2022-12-03T13:08:41.531Z,82.98
2022-12-03T13:11:28.387Z,82.80
2022-12-03T13:13:57.693Z,82.38
2022-12-03T13:16:29.644Z,81.89
2022-12-03T13:19:00.731Z,83.29
2022-12-03T13:21:38.219Z,83.36
2022-12-03T13:24:30.329Z,83.71
2022-12-03T13:26:58.904Z,82.65
2022-12-03T13:29:28.981Z,82.28
2022-12-03T13:31:59.411Z,82.16
2022-12-03T13:34:29.948Z,81.70
2022-12-03T13:36:58.851Z,82.49
2022-12-03T13:39:32.072Z,81.08
2022-12-03T13:42:31.655Z,82.93
2022-12-03T13:45:03.672Z,83.43
2022-12-03T13:47:31.601Z,82.49
2022-12-03T13:50:04.371Z,83.47
2022-12-03T13:52:35.858Z,82.89
2022-12-03T13:55:07.720Z,83.33
2022-12-03T13:57:35.735Z,83.16
2022-12-03T14:00:07.296Z,83.42
2022-12-03T14:02:35.221Z,85.18
2022-12-03T14:05:03.484Z,83.41
2022-12-03T14:07:31.517Z,83.79
2022-12-03T14:09:59.611Z,84.56
2022-12-03T14:12:27.700Z,84.87
2022-12-03T14:14:56.414Z,84.37
2022-12-03T14:17:25.788Z,84.47
2022-12-03T14:19:54.199Z,83.75
2022-12-03T14:22:25.500Z,84.44
2022-12-03T14:24:54.437Z,85.15
2022-12-03T14:27:22.881Z,85.26
2022-12-03T14:29:50.755Z,83.91
2022-12-03T14:32:19.036Z,84.88
2022-12-03T14:34:48.714Z,84.52
2022-12-03T14:37:16.902Z,84.17
2022-12-03T14:39:45.004Z,84.46
2022-12-03T14:42:15.732Z,84.30
2022-12-03T14:44:45.329Z,84.37
2022-12-03T14:47:14.358Z,84.61
2022-12-03T14:49:42.336Z,82.99
2022-12-03T14:52:12.691Z,84.38
2022-12-03T14:54:42.698Z,84.30
2022-12-03T14:57:12.627Z,83.61
2022-12-03T14:59:41.241Z,83.34
2022-12-03T15:02:10.423Z,84.66
2022-12-03T15:04:39.100Z,85.08
2022-12-03T15:07:07.990Z,85.30
2022-12-03T15:09:37.457Z,84.91
2022-12-03T15:12:06.182Z,84.80
2022-12-03T15:14:34.352Z,85.72
2022-12-03T15:17:02.468Z,84.93
2022-12-03T15:19:30.633Z,84.92
2022-12-03T15:21:58.592Z,85.07
2022-12-03T15:24:26.575Z,84.95
2022-12-03T15:26:56.075Z,84.04
2022-12-03T15:29:24.787Z,84.73
2022-12-03T15:31:52.720Z,84.85
2022-12-03T15:34:23.090Z,84.01
2022-12-03T15:36:51.532Z,84.35
2022-12-03T15:39:19.593Z,85.29
2022-12-03T15:41:47.704Z,85.01
2022-12-03T15:44:17.209Z,83.89
2022-12-03T15:46:45.234Z,83.96
2022-12-03T15:49:13.669Z,84.00
2022-12-03T15:51:41.619Z,83.39
2022-12-03T15:54:09.525Z,83.96
2022-12-03T15:56:37.885Z,84.42
2022-12-03T15:59:05.949Z,83.85
2022-12-03T16:01:35.402Z,83.71
2022-12-03T16:04:03.683Z,83.37
2022-12-03T16:06:31.609Z,82.82
2022-12-03T16:08:59.609Z,83.82
2022-12-03T16:11:27.855Z,84.08
2022-12-03T16:13:56.005Z,83.79
2022-12-03T16:16:24.483Z,84.23
2022-12-03T16:18:54.166Z,84.02
2022-12-03T16:21:37.286Z,84.83
2022-12-03T16:24:05.949Z,83.56
2022-12-03T16:26:34.041Z,84.34
2022-12-03T16:29:01.945Z,83.89
2022-12-03T16:31:30.302Z,83.54
2022-12-03T16:33:59.782Z,83.19
2022-12-03T16:36:27.666Z,82.64
2022-12-03T16:38:55.470Z,83.31
2022-12-03T16:41:23.476Z,84.65
2022-12-03T16:43:51.855Z,84.61
2022-12-03T16:46:26.101Z,84.38
2022-12-03T16:48:55.726Z,84.30
2022-12-03T16:51:26.474Z,83.77
2022-12-03T16:53:54.853Z,83.72
2022-12-03T16:56:22.815Z,84.22
2022-12-03T16:58:50.651Z,83.12
2022-12-03T17:01:18.537Z,83.78
2022-12-03T17:03:46.844Z,83.87
2022-12-03T17:06:14.722Z,83.87
2022-12-03T17:08:49.125Z,83.77
2022-12-03T17:11:18.045Z,82.76
2022-12-03T17:13:45.982Z,83.63
2022-12-03T17:16:13.964Z,83.72
2022-12-03T17:18:42.027Z,84.67
2022-12-03T17:21:10.155Z,84.13
2022-12-03T17:23:38.224Z,84.02
2022-12-03T17:26:07.522Z,83.71
2022-12-03T17:28:35.682Z,84.16
2022-12-03T17:31:04.228Z,83.38
2022-12-03T17:33:32.289Z,83.11
2022-12-03T17:36:00.278Z,84.65
2022-12-03T17:38:31.552Z,84.29
2022-12-03T17:41:02.168Z,83.77
2022-12-03T17:43:31.437Z,84.65
2022-12-03T17:46:00.724Z,84.19
2022-12-03T17:48:29.437Z,84.07
2022-12-03T17:50:58.110Z,83.30
2022-12-03T17:53:26.169Z,83.05
2022-12-03T17:55:54.274Z,84.32
2022-12-03T17:58:22.811Z,84.49
2022-12-03T18:00:56.036Z,83.83
2022-12-03T18:03:28.361Z,84.10
2022-12-03T18:05:56.506Z,84.05
2022-12-03T18:08:24.459Z,84.37
2022-12-03T18:10:52.494Z,84.59
2022-12-03T18:13:20.503Z,83.08
2022-12-03T18:15:48.485Z,83.73
2022-12-03T18:18:17.657Z,83.70
2022-12-03T18:20:46.031Z,84.13
2022-12-03T18:23:14.128Z,83.17
2022-12-03T18:25:42.844Z,83.91
2022-12-03T18:28:10.933Z,82.83
2022-12-03T18:30:38.815Z,82.60
2022-12-03T18:33:06.872Z,82.43
2022-12-03T18:35:36.297Z,82.27
2022-12-03T18:38:04.251Z,81.36
2022-12-03T18:40:32.264Z,82.87
2022-12-03T18:43:00.307Z,81.65
2022-12-03T18:45:28.264Z,82.35
2022-12-03T18:47:56.308Z,82.90
2022-12-03T18:50:24.298Z,82.13
2022-12-03T18:52:53.709Z,82.71
2022-12-03T18:55:22.922Z,82.20
2022-12-03T18:57:50.880Z,82.79
2022-12-03T19:00:19.295Z,81.55
2022-12-03T19:03:03.014Z,82.79
2022-12-03T19:05:32.736Z,83.05
2022-12-03T19:08:02.384Z,81.66
2022-12-03T19:10:30.466Z,81.57
2022-12-03T19:12:58.643Z,82.20
2022-12-03T19:15:26.507Z,82.79
2022-12-03T19:17:54.530Z,82.92
2022-12-03T19:20:22.422Z,82.90
2022-12-03T19:22:50.340Z,81.93
2022-12-03T19:25:19.922Z,82.33
2022-12-03T19:27:49.236Z,81.90
2022-12-03T19:30:17.462Z,82.24
2022-12-03T19:32:45.822Z,82.73
2022-12-03T19:35:13.687Z,82.16
2022-12-03T19:37:41.656Z,82.19
2022-12-03T19:40:11.250Z,80.84
2022-12-03T19:42:40.711Z,81.35
2022-12-03T19:45:09.430Z,80.65
2022-12-03T19:47:37.888Z,82.56
2022-12-03T19:50:06.773Z,82.19
2022-12-03T19:52:36.378Z,82.95
2022-12-03T19:55:05.172Z,80.92
2022-12-03T19:57:33.218Z,80.56
2022-12-03T20:00:02.449Z,79.21
2022-12-03T20:02:30.442Z,80.22
2022-12-03T20:04:58.676Z,79.81
2022-12-03T20:07:26.729Z,79.59
2022-12-03T20:09:54.790Z,82.24
2022-12-03T20:12:23.034Z,81.63
2022-12-03T20:14:51.779Z,80.72
2022-12-03T20:17:23.595Z,79.37
2022-12-03T20:19:51.486Z,79.44
2022-12-03T20:22:19.698Z,80.55
2022-12-03T20:24:47.592Z,82.04
2022-12-03T20:27:18.327Z,81.90
2022-12-03T20:29:50.611Z,80.79
2022-12-03T20:32:18.472Z,79.57
2022-12-03T20:34:49.603Z,79.76
2022-12-03T20:37:17.687Z,79.83
2022-12-03T20:39:45.848Z,78.88
2022-12-03T20:42:13.876Z,79.97
2022-12-03T20:44:41.844Z,80.50
2022-12-03T20:47:09.761Z,80.65
2022-12-03T20:49:39.080Z,80.28
2022-12-03T20:52:10.170Z,79.97
2022-12-03T20:54:38.018Z,80.23
2022-12-03T20:57:06.188Z,81.46
2022-12-03T20:59:34.063Z,81.59
2022-12-03T21:02:02.118Z,80.91
2022-12-03T21:04:30.219Z,80.18
2022-12-03T21:06:58.192Z,80.12
2022-12-03T21:09:27.409Z,79.93
2022-12-03T21:11:55.275Z,79.89
2022-12-03T21:14:23.203Z,80.50
2022-12-03T21:17:08.020Z,80.52
2022-12-03T21:19:36.687Z,80.11
2022-12-03T21:22:04.653Z,82.08
2022-12-03T21:24:34.370Z,80.03
2022-12-03T21:27:02.227Z,79.66
2022-12-03T21:29:30.167Z,81.02
2022-12-03T21:31:58.130Z,80.45
2022-12-03T21:34:28.169Z,80.79
2022-12-03T21:37:00.644Z,80.06
2022-12-03T21:39:28.665Z,80.27
2022-12-03T21:42:33.402Z,80.41
2022-12-03T21:44:46.244Z,80.73
2022-12-03T21:47:14.758Z,81.29
2022-12-03T21:49:42.981Z,80.74
2022-12-03T21:52:11.052Z,81.21
2022-12-03T21:54:38.863Z,83.80
2022-12-03T21:57:08.092Z,82.01
2022-12-03T21:59:35.902Z,82.56
2022-12-03T22:02:04.042Z,83.34
2022-12-03T22:04:32.086Z,83.68
2022-12-03T22:07:00.156Z,83.37
2022-12-03T22:09:28.075Z,82.91
2022-12-03T22:11:57.739Z,83.46
2022-12-03T22:14:27.969Z,84.13
2022-12-03T22:16:55.950Z,84.28
2022-12-03T22:19:24.430Z,84.47
2022-12-03T22:21:52.911Z,84.82
2022-12-03T22:24:21.177Z,84.58
2022-12-03T22:26:49.667Z,84.92
2022-12-03T22:29:18.142Z,85.06
2022-12-03T22:31:47.839Z,85.27
2022-12-03T22:34:15.765Z,84.43
2022-12-03T22:36:43.709Z,85.11
2022-12-03T22:39:11.700Z,84.68
2022-12-03T22:41:40.071Z,84.86
2022-12-03T22:44:08.185Z,84.45
2022-12-03T22:46:36.344Z,84.74
2022-12-03T22:49:07.634Z,85.50
2022-12-03T22:51:36.398Z,85.13
2022-12-03T22:54:05.672Z,84.80
2022-12-03T22:56:34.366Z,85.49
2022-12-03T22:59:02.893Z,84.71
2022-12-03T23:01:32.777Z,85.06
2022-12-03T23:04:01.937Z,85.29
2022-12-03T23:06:32.687Z,84.73
2022-12-03T23:09:01.191Z,84.81
2022-12-03T23:11:29.957Z,85.23
2022-12-03T23:13:59.690Z,85.03
2022-12-03T23:16:30.479Z,85.11
2022-12-03T23:18:58.936Z,85.20
2022-12-03T23:21:30.421Z,84.93
2022-12-03T23:24:00.598Z,84.81
2022-12-03T23:26:29.453Z,84.59
2022-12-03T23:28:57.958Z,84.42
2022-12-03T23:31:28.136Z,84.40
2022-12-03T23:33:57.216Z,84.64
2022-12-03T23:36:26.922Z,84.50
2022-12-03T23:38:55.390Z,85.08
2022-12-03T23:41:25.424Z,84.70
2022-12-03T23:43:53.877Z,83.96
2022-12-03T23:46:23.451Z,84.51
2022-12-03T23:48:52.238Z,84.68
2022-12-03T23:51:23.221Z,84.89
2022-12-03T23:53:52.845Z,84.98
2022-12-03T23:56:23.039Z,83.85
2022-12-03T23:58:52.300Z,85.79
